sensor_id;sensor_type;location;lat;lon;timestamp;P1;durP1;ratioP1;P2;durP2;ratioP2
6483;SDS011;3275;52.376;9.694;2024-03-08T00:01:41;24.30;;;10.63;;
6483;SDS011;3275;52.376;9.694;2024-03-08T00:04:10;23.97;;;10.50;;
6483;SDS011;3275;52.376;9.694;2024-03-08T00:06:36;25.10;;;10.90;;
6483;SDS011;3275;52.376;9.694;2024-03-08T00:09:03;29.17;;;11.07;;
6483;SDS011;3275;52.376;9.694;2024-03-08T00:11:31;26.47;;;12.47;;
6483;SDS011;3275;52.376;9.694;2024-03-08T00:13:57;25.73;;;11.10;;
6483;SDS011;3275;52.376;9.694;2024-03-08T00:16:24;21.80;;;11.33;;
6483;SDS011;3275;52.376;9.694;2024-03-08T00:18:51;21.60;;;11.80;;
6483;SDS011;3275;52.376;9.694;2024-03-08T00:21:17;21.60;;;11.67;;
6483;SDS011;3275;52.376;9.694;2024-03-08T00:23:44;28.77;;;11.37;;
6483;SDS011;3275;52.376;9.694;2024-03-08T00:26:10;21.70;;;10.80;;
6483;SDS011;3275;52.376;9.694;2024-03-08T00:28:38;26.50;;;11.63;;
6483;SDS011;3275;52.376;9.694;2024-03-08T00:31:05;25.00;;;10.50;;
6483;SDS011;3275;52.376;9.694;2024-03-08T00:33:32;27.07;;;10.90;;
6483;SDS011;3275;52.376;9.694;2024-03-08T00:35:58;24.50;;;11.53;;
6483;SDS011;3275;52.376;9.694;2024-03-08T00:38:25;24.50;;;11.63;;
6483;SDS011;3275;52.376;9.694;2024-03-08T00:40:51;22.60;;;11.40;;
6483;SDS011;3275;52.376;9.694;2024-03-08T00:43:18;25.63;;;11.40;;
6483;SDS011;3275;52.376;9.694;2024-03-08T00:45:46;27.90;;;11.23;;
6483;SDS011;3275;52.376;9.694;2024-03-08T00:48:12;25.90;;;12.13;;
6483;SDS011;3275;52.376;9.694;2024-03-08T00:50:39;24.03;;;12.27;;
6483;SDS011;3275;52.376;9.694;2024-03-08T00:53:06;23.23;;;11.00;;
6483;SDS011;3275;52.376;9.694;2024-03-08T00:55:32;31.47;;;11.40;;
6483;SDS011;3275;52.376;9.694;2024-03-08T00:57:59;29.00;;;12.97;;
6483;SDS011;3275;52.376;9.694;2024-03-08T01:00:26;21.13;;;11.00;;
6483;SDS011;3275;52.376;9.694;2024-03-08T01:02:54;25.93;;;12.70;;
6483;SDS011;3275;52.376;9.694;2024-03-08T01:05:21;21.77;;;10.87;;
6483;SDS011;3275;52.376;9.694;2024-03-08T01:07:49;22.17;;;10.67;;
6483;SDS011;3275;52.376;9.694;2024-03-08T01:10:16;27.60;;;13.47;;
6483;SDS011;3275;52.376;9.694;2024-03-08T01:12:43;23.40;;;11.23;;
6483;SDS011;3275;52.376;9.694;2024-03-08T01:15:10;27.40;;;13.03;;
6483;SDS011;3275;52.376;9.694;2024-03-08T01:17:37;25.63;;;11.27;;
6483;SDS011;3275;52.376;9.694;2024-03-08T01:20:05;25.13;;;11.93;;
6483;SDS011;3275;52.376;9.694;2024-03-08T01:22:35;29.33;;;12.20;;
6483;SDS011;3275;52.376;9.694;2024-03-08T01:25:02;30.43;;;12.60;;
6483;SDS011;3275;52.376;9.694;2024-03-08T01:27:29;24.30;;;12.13;;
6483;SDS011;3275;52.376;9.694;2024-03-08T01:29:56;31.73;;;11.60;;
6483;SDS011;3275;52.376;9.694;2024-03-08T01:32:23;25.43;;;11.60;;
6483;SDS011;3275;52.376;9.694;2024-03-08T01:34:50;26.67;;;12.20;;
6483;SDS011;3275;52.376;9.694;2024-03-08T01:37:18;27.10;;;12.03;;
6483;SDS011;3275;52.376;9.694;2024-03-08T01:39:45;35.73;;;12.40;;
6483;SDS011;3275;52.376;9.694;2024-03-08T01:42:11;24.90;;;12.10;;
6483;SDS011;3275;52.376;9.694;2024-03-08T01:44:40;31.03;;;12.43;;
6483;SDS011;3275;52.376;9.694;2024-03-08T01:47:09;27.47;;;12.33;;
6483;SDS011;3275;52.376;9.694;2024-03-08T01:49:36;27.80;;;13.10;;
6483;SDS011;3275;52.376;9.694;2024-03-08T01:52:03;24.40;;;12.53;;
6483;SDS011;3275;52.376;9.694;2024-03-08T01:54:32;26.87;;;12.50;;
6483;SDS011;3275;52.376;9.694;2024-03-08T01:56:59;22.97;;;12.50;;
6483;SDS011;3275;52.376;9.694;2024-03-08T01:59:26;22.93;;;11.30;;
6483;SDS011;3275;52.376;9.694;2024-03-08T02:01:53;23.67;;;12.20;;
6483;SDS011;3275;52.376;9.694;2024-03-08T02:04:21;20.47;;;10.60;;
6483;SDS011;3275;52.376;9.694;2024-03-08T02:06:49;25.13;;;11.27;;
6483;SDS011;3275;52.376;9.694;2024-03-08T02:12:21;24.63;;;12.30;;
6483;SDS011;3275;52.376;9.694;2024-03-08T02:14:48;28.30;;;12.50;;
6483;SDS011;3275;52.376;9.694;2024-03-08T02:17:14;26.87;;;11.57;;
6483;SDS011;3275;52.376;9.694;2024-03-08T02:19:41;27.80;;;11.60;;
6483;SDS011;3275;52.376;9.694;2024-03-08T02:22:09;27.97;;;12.03;;
6483;SDS011;3275;52.376;9.694;2024-03-08T02:24:36;28.40;;;13.43;;
6483;SDS011;3275;52.376;9.694;2024-03-08T02:27:02;26.00;;;12.50;;
6483;SDS011;3275;52.376;9.694;2024-03-08T02:29:30;28.27;;;11.73;;
6483;SDS011;3275;52.376;9.694;2024-03-08T02:31:57;29.87;;;13.00;;
6483;SDS011;3275;52.376;9.694;2024-03-08T02:34:23;28.40;;;12.00;;
6483;SDS011;3275;52.376;9.694;2024-03-08T02:36:50;23.37;;;11.17;;
6483;SDS011;3275;52.376;9.694;2024-03-08T02:39:18;30.80;;;12.10;;
6483;SDS011;3275;52.376;9.694;2024-03-08T02:41:45;28.27;;;13.73;;
6483;SDS011;3275;52.376;9.694;2024-03-08T02:44:12;23.90;;;11.30;;
6483;SDS011;3275;52.376;9.694;2024-03-08T02:46:39;27.17;;;12.23;;
6483;SDS011;3275;52.376;9.694;2024-03-08T02:49:06;29.77;;;13.47;;
6483;SDS011;3275;52.376;9.694;2024-03-08T02:51:33;25.57;;;11.87;;
6483;SDS011;3275;52.376;9.694;2024-03-08T02:54:00;21.07;;;10.87;;
6483;SDS011;3275;52.376;9.694;2024-03-08T02:56:30;26.40;;;12.20;;
6483;SDS011;3275;52.376;9.694;2024-03-08T02:58:59;30.83;;;13.50;;
6483;SDS011;3275;52.376;9.694;2024-03-08T03:01:26;25.00;;;11.60;;
6483;SDS011;3275;52.376;9.694;2024-03-08T03:03:53;25.97;;;12.30;;
6483;SDS011;3275;52.376;9.694;2024-03-08T03:06:19;24.60;;;11.90;;
6483;SDS011;3275;52.376;9.694;2024-03-08T03:08:47;28.23;;;12.93;;
6483;SDS011;3275;52.376;9.694;2024-03-08T03:11:13;24.87;;;12.50;;
6483;SDS011;3275;52.376;9.694;2024-03-08T03:13:41;28.60;;;12.40;;
6483;SDS011;3275;52.376;9.694;2024-03-08T03:16:16;24.30;;;11.10;;
6483;SDS011;3275;52.376;9.694;2024-03-08T03:18:43;27.17;;;12.27;;
6483;SDS011;3275;52.376;9.694;2024-03-08T03:21:10;29.47;;;12.00;;
6483;SDS011;3275;52.376;9.694;2024-03-08T03:23:38;28.80;;;12.97;;
6483;SDS011;3275;52.376;9.694;2024-03-08T03:26:04;27.00;;;12.43;;
6483;SDS011;3275;52.376;9.694;2024-03-08T03:28:32;25.73;;;11.47;;
6483;SDS011;3275;52.376;9.694;2024-03-08T03:31:00;25.80;;;10.80;;
6483;SDS011;3275;52.376;9.694;2024-03-08T03:33:27;27.40;;;12.13;;
6483;SDS011;3275;52.376;9.694;2024-03-08T03:35:53;26.90;;;12.30;;
6483;SDS011;3275;52.376;9.694;2024-03-08T03:38:20;24.83;;;11.33;;
6483;SDS011;3275;52.376;9.694;2024-03-08T03:40:48;26.10;;;11.57;;
6483;SDS011;3275;52.376;9.694;2024-03-08T03:43:17;36.60;;;13.00;;
6483;SDS011;3275;52.376;9.694;2024-03-08T03:45:44;25.87;;;11.97;;
6483;SDS011;3275;52.376;9.694;2024-03-08T03:48:12;20.47;;;12.17;;
6483;SDS011;3275;52.376;9.694;2024-03-08T03:50:38;29.80;;;12.63;;
6483;SDS011;3275;52.376;9.694;2024-03-08T03:53:05;25.13;;;10.90;;
6483;SDS011;3275;52.376;9.694;2024-03-08T03:55:33;29.03;;;12.87;;
6483;SDS011;3275;52.376;9.694;2024-03-08T03:57:59;25.07;;;11.67;;
6483;SDS011;3275;52.376;9.694;2024-03-08T04:00:27;28.13;;;12.60;;
6483;SDS011;3275;52.376;9.694;2024-03-08T04:02:54;25.40;;;11.93;;
6483;SDS011;3275;52.376;9.694;2024-03-08T04:05:25;24.87;;;12.50;;
6483;SDS011;3275;52.376;9.694;2024-03-08T04:07:52;27.83;;;12.47;;
6483;SDS011;3275;52.376;9.694;2024-03-08T04:10:18;27.03;;;11.43;;
6483;SDS011;3275;52.376;9.694;2024-03-08T04:12:45;23.03;;;11.13;;
6483;SDS011;3275;52.376;9.694;2024-03-08T04:15:12;32.43;;;12.50;;
6483;SDS011;3275;52.376;9.694;2024-03-08T04:17:38;29.60;;;13.27;;
6483;SDS011;3275;52.376;9.694;2024-03-08T04:20:05;31.87;;;14.50;;
6483;SDS011;3275;52.376;9.694;2024-03-08T04:22:36;29.63;;;12.23;;
6483;SDS011;3275;52.376;9.694;2024-03-08T04:25:02;28.77;;;12.97;;
6483;SDS011;3275;52.376;9.694;2024-03-08T04:27:29;28.23;;;12.97;;
6483;SDS011;3275;52.376;9.694;2024-03-08T04:29:57;24.27;;;11.67;;
6483;SDS011;3275;52.376;9.694;2024-03-08T04:32:24;28.80;;;13.00;;
6483;SDS011;3275;52.376;9.694;2024-03-08T04:34:51;25.90;;;13.70;;
6483;SDS011;3275;52.376;9.694;2024-03-08T04:37:17;29.00;;;12.20;;
6483;SDS011;3275;52.376;9.694;2024-03-08T04:39:47;25.30;;;12.40;;
6483;SDS011;3275;52.376;9.694;2024-03-08T04:42:14;27.67;;;12.77;;
6483;SDS011;3275;52.376;9.694;2024-03-08T04:44:43;30.63;;;11.37;;
6483;SDS011;3275;52.376;9.694;2024-03-08T04:47:09;30.73;;;11.57;;
6483;SDS011;3275;52.376;9.694;2024-03-08T04:49:36;34.43;;;13.57;;
6483;SDS011;3275;52.376;9.694;2024-03-08T04:52:03;29.10;;;11.70;;
6483;SDS011;3275;52.376;9.694;2024-03-08T04:54:30;24.27;;;12.27;;
6483;SDS011;3275;52.376;9.694;2024-03-08T04:56:58;27.03;;;13.53;;
6483;SDS011;3275;52.376;9.694;2024-03-08T04:59:25;28.97;;;13.53;;
6483;SDS011;3275;52.376;9.694;2024-03-08T05:01:52;28.00;;;13.13;;
6483;SDS011;3275;52.376;9.694;2024-03-08T05:04:19;26.20;;;12.07;;
6483;SDS011;3275;52.376;9.694;2024-03-08T05:06:45;30.80;;;11.90;;
6483;SDS011;3275;52.376;9.694;2024-03-08T05:09:12;29.47;;;12.13;;
6483;SDS011;3275;52.376;9.694;2024-03-08T05:11:41;30.87;;;13.47;;
6483;SDS011;3275;52.376;9.694;2024-03-08T05:14:10;24.57;;;12.17;;
6483;SDS011;3275;52.376;9.694;2024-03-08T05:16:37;36.27;;;13.27;;
6483;SDS011;3275;52.376;9.694;2024-03-08T05:19:05;30.90;;;13.10;;
6483;SDS011;3275;52.376;9.694;2024-03-08T05:21:32;29.70;;;13.50;;
6483;SDS011;3275;52.376;9.694;2024-03-08T05:23:58;27.83;;;12.23;;
6483;SDS011;3275;52.376;9.694;2024-03-08T05:26:25;28.80;;;12.70;;
6483;SDS011;3275;52.376;9.694;2024-03-08T05:28:51;28.30;;;11.93;;
6483;SDS011;3275;52.376;9.694;2024-03-08T05:31:20;30.37;;;13.20;;
6483;SDS011;3275;52.376;9.694;2024-03-08T05:33:48;36.13;;;14.30;;
6483;SDS011;3275;52.376;9.694;2024-03-08T05:36:15;30.23;;;12.37;;
6483;SDS011;3275;52.376;9.694;2024-03-08T05:38:42;35.20;;;15.87;;
6483;SDS011;3275;52.376;9.694;2024-03-08T05:41:09;28.70;;;13.33;;
6483;SDS011;3275;52.376;9.694;2024-03-08T05:43:36;28.90;;;14.27;;
6483;SDS011;3275;52.376;9.694;2024-03-08T05:46:03;23.83;;;11.83;;
6483;SDS011;3275;52.376;9.694;2024-03-08T05:48:31;29.30;;;13.23;;
6483;SDS011;3275;52.376;9.694;2024-03-08T05:50:58;29.93;;;13.67;;
6483;SDS011;3275;52.376;9.694;2024-03-08T05:53:26;38.23;;;13.50;;
6483;SDS011;3275;52.376;9.694;2024-03-08T05:55:56;29.77;;;14.20;;
6483;SDS011;3275;52.376;9.694;2024-03-08T05:58:23;30.60;;;13.43;;
6483;SDS011;3275;52.376;9.694;2024-03-08T06:00:49;28.10;;;13.53;;
6483;SDS011;3275;52.376;9.694;2024-03-08T06:03:16;29.87;;;14.17;;
6483;SDS011;3275;52.376;9.694;2024-03-08T06:05:46;26.90;;;12.47;;
6483;SDS011;3275;52.376;9.694;2024-03-08T06:08:13;28.87;;;13.80;;
6483;SDS011;3275;52.376;9.694;2024-03-08T06:10:40;35.87;;;15.07;;
6483;SDS011;3275;52.376;9.694;2024-03-08T06:13:07;29.00;;;14.30;;
6483;SDS011;3275;52.376;9.694;2024-03-08T06:15:33;32.60;;;14.03;;
6483;SDS011;3275;52.376;9.694;2024-03-08T06:18:01;25.10;;;12.83;;
6483;SDS011;3275;52.376;9.694;2024-03-08T06:20:27;28.37;;;13.10;;
6483;SDS011;3275;52.376;9.694;2024-03-08T06:22:55;40.97;;;15.40;;
6483;SDS011;3275;52.376;9.694;2024-03-08T06:25:22;25.30;;;13.17;;
6483;SDS011;3275;52.376;9.694;2024-03-08T06:27:49;25.30;;;14.30;;
6483;SDS011;3275;52.376;9.694;2024-03-08T06:30:16;32.33;;;14.13;;
6483;SDS011;3275;52.376;9.694;2024-03-08T06:32:45;29.43;;;14.17;;
6483;SDS011;3275;52.376;9.694;2024-03-08T06:35:11;29.87;;;13.70;;
6483;SDS011;3275;52.376;9.694;2024-03-08T06:37:40;28.17;;;13.23;;
6483;SDS011;3275;52.376;9.694;2024-03-08T06:40:11;36.33;;;13.30;;
6483;SDS011;3275;52.376;9.694;2024-03-08T06:42:39;28.13;;;14.20;;
6483;SDS011;3275;52.376;9.694;2024-03-08T06:45:06;28.37;;;13.83;;
6483;SDS011;3275;52.376;9.694;2024-03-08T06:47:34;31.07;;;16.17;;
6483;SDS011;3275;52.376;9.694;2024-03-08T06:50:00;33.73;;;15.80;;
6483;SDS011;3275;52.376;9.694;2024-03-08T06:52:27;35.50;;;14.37;;
6483;SDS011;3275;52.376;9.694;2024-03-08T06:54:54;35.33;;;14.30;;
6483;SDS011;3275;52.376;9.694;2024-03-08T06:57:23;35.43;;;14.60;;
6483;SDS011;3275;52.376;9.694;2024-03-08T06:59:50;29.03;;;13.70;;
6483;SDS011;3275;52.376;9.694;2024-03-08T07:02:17;34.20;;;15.90;;
6483;SDS011;3275;52.376;9.694;2024-03-08T07:04:43;32.83;;;14.43;;
6483;SDS011;3275;52.376;9.694;2024-03-08T07:07:10;30.73;;;14.47;;
6483;SDS011;3275;52.376;9.694;2024-03-08T07:09:37;34.57;;;16.53;;
6483;SDS011;3275;52.376;9.694;2024-03-08T07:12:03;30.47;;;14.07;;
6483;SDS011;3275;52.376;9.694;2024-03-08T07:14:32;33.47;;;15.17;;
6483;SDS011;3275;52.376;9.694;2024-03-08T07:16:59;30.77;;;15.90;;
6483;SDS011;3275;52.376;9.694;2024-03-08T07:19:26;35.17;;;15.60;;
6483;SDS011;3275;52.376;9.694;2024-03-08T07:21:52;32.77;;;14.13;;
6483;SDS011;3275;52.376;9.694;2024-03-08T07:24:20;30.93;;;12.80;;
6483;SDS011;3275;52.376;9.694;2024-03-08T07:27:04;30.00;;;14.70;;
6483;SDS011;3275;52.376;9.694;2024-03-08T07:29:32;32.23;;;14.60;;
6483;SDS011;3275;52.376;9.694;2024-03-08T07:31:59;28.57;;;14.20;;
6483;SDS011;3275;52.376;9.694;2024-03-08T07:34:37;31.20;;;14.90;;
6483;SDS011;3275;52.376;9.694;2024-03-08T07:37:05;35.90;;;17.87;;
6483;SDS011;3275;52.376;9.694;2024-03-08T07:39:35;35.63;;;14.67;;
6483;SDS011;3275;52.376;9.694;2024-03-08T07:42:03;35.93;;;15.40;;
6483;SDS011;3275;52.376;9.694;2024-03-08T07:44:34;29.57;;;14.97;;
6483;SDS011;3275;52.376;9.694;2024-03-08T07:47:00;29.83;;;14.20;;
6483;SDS011;3275;52.376;9.694;2024-03-08T07:49:27;33.93;;;13.90;;
6483;SDS011;3275;52.376;9.694;2024-03-08T07:51:53;34.73;;;15.00;;
6483;SDS011;3275;52.376;9.694;2024-03-08T07:54:20;34.50;;;15.97;;
6483;SDS011;3275;52.376;9.694;2024-03-08T07:56:47;34.13;;;15.47;;
6483;SDS011;3275;52.376;9.694;2024-03-08T07:59:13;34.97;;;14.50;;
6483;SDS011;3275;52.376;9.694;2024-03-08T08:01:41;34.00;;;15.70;;
6483;SDS011;3275;52.376;9.694;2024-03-08T08:04:09;38.20;;;14.83;;
6483;SDS011;3275;52.376;9.694;2024-03-08T08:06:37;31.37;;;14.37;;
6483;SDS011;3275;52.376;9.694;2024-03-08T08:09:05;29.87;;;15.50;;
6483;SDS011;3275;52.376;9.694;2024-03-08T08:11:34;37.83;;;15.30;;
6483;SDS011;3275;52.376;9.694;2024-03-08T08:14:01;33.33;;;15.53;;
6483;SDS011;3275;52.376;9.694;2024-03-08T08:16:28;34.30;;;13.83;;
6483;SDS011;3275;52.376;9.694;2024-03-08T08:18:56;31.77;;;15.00;;
6483;SDS011;3275;52.376;9.694;2024-03-08T08:21:22;31.30;;;16.00;;
6483;SDS011;3275;52.376;9.694;2024-03-08T08:23:51;32.70;;;13.57;;
6483;SDS011;3275;52.376;9.694;2024-03-08T08:26:17;23.13;;;13.33;;
6483;SDS011;3275;52.376;9.694;2024-03-08T08:28:44;32.80;;;15.50;;
6483;SDS011;3275;52.376;9.694;2024-03-08T08:31:11;29.00;;;15.70;;
6483;SDS011;3275;52.376;9.694;2024-03-08T08:33:38;27.23;;;14.43;;
6483;SDS011;3275;52.376;9.694;2024-03-08T08:36:07;27.97;;;13.60;;
6483;SDS011;3275;52.376;9.694;2024-03-08T08:38:34;46.00;;;17.03;;
6483;SDS011;3275;52.376;9.694;2024-03-08T08:41:01;24.87;;;12.67;;
6483;SDS011;3275;52.376;9.694;2024-03-08T08:43:28;37.63;;;16.13;;
6483;SDS011;3275;52.376;9.694;2024-03-08T08:45:55;22.60;;;12.60;;
6483;SDS011;3275;52.376;9.694;2024-03-08T08:48:21;37.97;;;16.03;;
6483;SDS011;3275;52.376;9.694;2024-03-08T08:50:49;32.07;;;15.17;;
6483;SDS011;3275;52.376;9.694;2024-03-08T08:53:18;29.13;;;15.63;;
6483;SDS011;3275;52.376;9.694;2024-03-08T08:55:45;30.90;;;14.67;;
6483;SDS011;3275;52.376;9.694;2024-03-08T08:58:12;33.70;;;15.50;;
6483;SDS011;3275;52.376;9.694;2024-03-08T09:00:38;33.57;;;17.20;;
6483;SDS011;3275;52.376;9.694;2024-03-08T09:03:05;34.07;;;16.60;;
6483;SDS011;3275;52.376;9.694;2024-03-08T09:05:32;33.40;;;16.73;;
6483;SDS011;3275;52.376;9.694;2024-03-08T09:07:59;30.50;;;16.00;;
6483;SDS011;3275;52.376;9.694;2024-03-08T09:10:28;25.00;;;12.47;;
6483;SDS011;3275;52.376;9.694;2024-03-08T09:12:54;40.60;;;14.97;;
6483;SDS011;3275;52.376;9.694;2024-03-08T09:15:21;28.77;;;15.00;;
6483;SDS011;3275;52.376;9.694;2024-03-08T09:17:47;33.37;;;16.90;;
6483;SDS011;3275;52.376;9.694;2024-03-08T09:20:14;27.87;;;14.63;;
6483;SDS011;3275;52.376;9.694;2024-03-08T09:22:43;32.87;;;15.30;;
6483;SDS011;3275;52.376;9.694;2024-03-08T09:25:10;31.97;;;16.87;;
6483;SDS011;3275;52.376;9.694;2024-03-08T09:27:38;29.00;;;13.10;;
6483;SDS011;3275;52.376;9.694;2024-03-08T09:30:06;32.43;;;16.50;;
6483;SDS011;3275;52.376;9.694;2024-03-08T09:32:33;24.07;;;13.47;;
6483;SDS011;3275;52.376;9.694;2024-03-08T09:35:00;31.40;;;13.53;;
6483;SDS011;3275;52.376;9.694;2024-03-08T09:37:27;27.00;;;14.93;;
6483;SDS011;3275;52.376;9.694;2024-03-08T09:39:53;32.57;;;15.37;;
6483;SDS011;3275;52.376;9.694;2024-03-08T09:42:20;27.17;;;14.80;;
6483;SDS011;3275;52.376;9.694;2024-03-08T09:44:48;34.93;;;15.93;;
6483;SDS011;3275;52.376;9.694;2024-03-08T09:47:15;35.47;;;15.90;;
6483;SDS011;3275;52.376;9.694;2024-03-08T09:49:43;33.33;;;16.03;;
6483;SDS011;3275;52.376;9.694;2024-03-08T09:52:11;45.40;;;16.63;;
6483;SDS011;3275;52.376;9.694;2024-03-08T09:54:37;35.60;;;15.90;;
6483;SDS011;3275;52.376;9.694;2024-03-08T09:57:04;35.77;;;16.97;;
6483;SDS011;3275;52.376;9.694;2024-03-08T09:59:34;39.33;;;15.70;;
6483;SDS011;3275;52.376;9.694;2024-03-08T10:02:14;23.73;;;13.90;;
6483;SDS011;3275;52.376;9.694;2024-03-08T10:04:42;30.80;;;15.60;;
6483;SDS011;3275;52.376;9.694;2024-03-08T10:07:11;24.13;;;14.10;;
6483;SDS011;3275;52.376;9.694;2024-03-08T10:09:38;32.23;;;16.93;;
6483;SDS011;3275;52.376;9.694;2024-03-08T10:12:05;29.93;;;14.77;;
6483;SDS011;3275;52.376;9.694;2024-03-08T10:14:33;31.50;;;15.17;;
6483;SDS011;3275;52.376;9.694;2024-03-08T10:16:59;33.90;;;17.07;;
6483;SDS011;3275;52.376;9.694;2024-03-08T10:19:27;33.10;;;15.30;;
6483;SDS011;3275;52.376;9.694;2024-03-08T10:21:54;28.90;;;14.20;;
6483;SDS011;3275;52.376;9.694;2024-03-08T10:24:23;35.17;;;16.60;;
6483;SDS011;3275;52.376;9.694;2024-03-08T10:26:51;32.53;;;15.43;;
6483;SDS011;3275;52.376;9.694;2024-03-08T10:29:18;30.00;;;14.67;;
6483;SDS011;3275;52.376;9.694;2024-03-08T10:31:45;31.43;;;14.53;;
6483;SDS011;3275;52.376;9.694;2024-03-08T10:34:11;29.53;;;15.70;;
6483;SDS011;3275;52.376;9.694;2024-03-08T10:36:40;30.50;;;15.47;;
6483;SDS011;3275;52.376;9.694;2024-03-08T10:39:12;33.43;;;16.17;;
6483;SDS011;3275;52.376;9.694;2024-03-08T10:41:47;30.20;;;14.70;;
6483;SDS011;3275;52.376;9.694;2024-03-08T10:44:19;29.00;;;15.53;;
6483;SDS011;3275;52.376;9.694;2024-03-08T10:46:59;32.23;;;16.00;;
6483;SDS011;3275;52.376;9.694;2024-03-08T10:49:30;34.20;;;15.50;;
6483;SDS011;3275;52.376;9.694;2024-03-08T10:52:01;30.57;;;15.27;;
6483;SDS011;3275;52.376;9.694;2024-03-08T10:54:30;26.10;;;13.13;;
6483;SDS011;3275;52.376;9.694;2024-03-08T10:56:58;30.73;;;15.03;;
6483;SDS011;3275;52.376;9.694;2024-03-08T10:59:26;34.50;;;15.97;;
6483;SDS011;3275;52.376;9.694;2024-03-08T11:01:53;35.27;;;15.50;;
6483;SDS011;3275;52.376;9.694;2024-03-08T11:04:20;33.13;;;14.90;;
6483;SDS011;3275;52.376;9.694;2024-03-08T11:06:48;31.80;;;16.30;;
6483;SDS011;3275;52.376;9.694;2024-03-08T11:09:28;30.70;;;15.73;;
6483;SDS011;3275;52.376;9.694;2024-03-08T11:14:45;31.23;;;16.07;;
6483;SDS011;3275;52.376;9.694;2024-03-08T11:17:13;31.50;;;14.00;;
6483;SDS011;3275;52.376;9.694;2024-03-08T11:19:45;37.77;;;15.47;;
6483;SDS011;3275;52.376;9.694;2024-03-08T11:22:19;26.63;;;14.17;;
6483;SDS011;3275;52.376;9.694;2024-03-08T11:24:51;30.90;;;15.53;;
6483;SDS011;3275;52.376;9.694;2024-03-08T11:27:17;31.27;;;15.30;;
6483;SDS011;3275;52.376;9.694;2024-03-08T11:29:58;30.60;;;15.90;;
6483;SDS011;3275;52.376;9.694;2024-03-08T11:32:33;28.83;;;15.13;;
6483;SDS011;3275;52.376;9.694;2024-03-08T11:35:01;28.17;;;15.30;;
6483;SDS011;3275;52.376;9.694;2024-03-08T11:37:33;27.10;;;15.90;;
6483;SDS011;3275;52.376;9.694;2024-03-08T11:40:02;31.20;;;15.50;;
6483;SDS011;3275;52.376;9.694;2024-03-08T11:42:39;31.30;;;15.83;;
6483;SDS011;3275;52.376;9.694;2024-03-08T11:45:08;31.03;;;16.97;;
6483;SDS011;3275;52.376;9.694;2024-03-08T11:47:36;28.30;;;15.30;;
6483;SDS011;3275;52.376;9.694;2024-03-08T11:50:05;33.30;;;14.80;;
6483;SDS011;3275;52.376;9.694;2024-03-08T11:52:35;29.47;;;13.77;;
6483;SDS011;3275;52.376;9.694;2024-03-08T11:55:04;29.90;;;15.00;;
6483;SDS011;3275;52.376;9.694;2024-03-08T11:57:31;31.60;;;16.33;;
6483;SDS011;3275;52.376;9.694;2024-03-08T11:59:58;34.30;;;15.80;;
6483;SDS011;3275;52.376;9.694;2024-03-08T12:02:31;27.00;;;14.77;;
6483;SDS011;3275;52.376;9.694;2024-03-08T12:05:00;29.83;;;14.90;;
6483;SDS011;3275;52.376;9.694;2024-03-08T12:07:28;26.67;;;13.77;;
6483;SDS011;3275;52.376;9.694;2024-03-08T12:10:17;31.23;;;15.67;;
6483;SDS011;3275;52.376;9.694;2024-03-08T12:12:46;33.43;;;15.90;;
6483;SDS011;3275;52.376;9.694;2024-03-08T12:15:14;29.70;;;14.87;;
6483;SDS011;3275;52.376;9.694;2024-03-08T12:17:43;35.83;;;17.30;;
6483;SDS011;3275;52.376;9.694;2024-03-08T12:20:11;26.67;;;13.40;;
6483;SDS011;3275;52.376;9.694;2024-03-08T12:22:41;42.60;;;20.57;;
6483;SDS011;3275;52.376;9.694;2024-03-08T12:25:08;39.10;;;17.83;;
6483;SDS011;3275;52.376;9.694;2024-03-08T12:27:38;30.27;;;15.43;;
6483;SDS011;3275;52.376;9.694;2024-03-08T12:30:19;29.37;;;15.37;;
6483;SDS011;3275;52.376;9.694;2024-03-08T12:32:52;36.33;;;15.20;;
6483;SDS011;3275;52.376;9.694;2024-03-08T12:35:22;47.57;;;21.47;;
6483;SDS011;3275;52.376;9.694;2024-03-08T12:37:50;21.43;;;12.23;;
6483;SDS011;3275;52.376;9.694;2024-03-08T12:40:19;22.87;;;12.40;;
6483;SDS011;3275;52.376;9.694;2024-03-08T12:42:53;23.80;;;12.33;;
6483;SDS011;3275;52.376;9.694;2024-03-08T12:45:20;21.23;;;12.73;;
6483;SDS011;3275;52.376;9.694;2024-03-08T12:47:48;24.33;;;13.10;;
6483;SDS011;3275;52.376;9.694;2024-03-08T12:50:15;21.80;;;13.00;;
6483;SDS011;3275;52.376;9.694;2024-03-08T12:52:43;23.80;;;12.03;;
6483;SDS011;3275;52.376;9.694;2024-03-08T12:55:09;23.27;;;12.20;;
6483;SDS011;3275;52.376;9.694;2024-03-08T12:57:37;23.00;;;12.23;;
6483;SDS011;3275;52.376;9.694;2024-03-08T13:00:06;21.20;;;12.87;;
6483;SDS011;3275;52.376;9.694;2024-03-08T13:02:37;26.97;;;13.57;;
6483;SDS011;3275;52.376;9.694;2024-03-08T13:05:05;22.73;;;12.57;;
6483;SDS011;3275;52.376;9.694;2024-03-08T13:07:34;23.60;;;12.60;;
6483;SDS011;3275;52.376;9.694;2024-03-08T13:10:02;27.90;;;13.70;;
6483;SDS011;3275;52.376;9.694;2024-03-08T13:12:29;23.93;;;13.63;;
6483;SDS011;3275;52.376;9.694;2024-03-08T13:14:56;28.90;;;14.97;;
6483;SDS011;3275;52.376;9.694;2024-03-08T13:17:24;34.63;;;18.43;;
6483;SDS011;3275;52.376;9.694;2024-03-08T13:19:51;33.87;;;18.40;;
6483;SDS011;3275;52.376;9.694;2024-03-08T13:22:21;35.40;;;17.50;;
6483;SDS011;3275;52.376;9.694;2024-03-08T13:24:49;27.00;;;15.70;;
6483;SDS011;3275;52.376;9.694;2024-03-08T13:27:17;32.80;;;16.87;;
6483;SDS011;3275;52.376;9.694;2024-03-08T13:29:46;30.50;;;16.20;;
6483;SDS011;3275;52.376;9.694;2024-03-08T13:32:14;29.40;;;16.97;;
6483;SDS011;3275;52.376;9.694;2024-03-08T13:34:42;33.23;;;16.03;;
6483;SDS011;3275;52.376;9.694;2024-03-08T13:37:10;26.80;;;16.00;;
6483;SDS011;3275;52.376;9.694;2024-03-08T13:39:36;22.00;;;14.07;;
6483;SDS011;3275;52.376;9.694;2024-03-08T13:42:08;21.97;;;14.07;;
6483;SDS011;3275;52.376;9.694;2024-03-08T13:44:38;23.10;;;15.20;;
6483;SDS011;3275;52.376;9.694;2024-03-08T13:47:06;24.00;;;15.87;;
6483;SDS011;3275;52.376;9.694;2024-03-08T13:49:33;21.20;;;14.97;;
6483;SDS011;3275;52.376;9.694;2024-03-08T13:52:02;22.10;;;14.73;;
6483;SDS011;3275;52.376;9.694;2024-03-08T13:54:29;22.60;;;14.53;;
6483;SDS011;3275;52.376;9.694;2024-03-08T13:56:56;27.10;;;15.80;;
6483;SDS011;3275;52.376;9.694;2024-03-08T13:59:23;19.67;;;13.00;;
6483;SDS011;3275;52.376;9.694;2024-03-08T14:01:54;21.23;;;14.67;;
6483;SDS011;3275;52.376;9.694;2024-03-08T14:04:21;22.13;;;15.20;;
6483;SDS011;3275;52.376;9.694;2024-03-08T14:06:49;19.70;;;14.27;;
6483;SDS011;3275;52.376;9.694;2024-03-08T14:09:17;20.50;;;15.20;;
6483;SDS011;3275;52.376;9.694;2024-03-08T14:11:44;26.10;;;16.57;;
6483;SDS011;3275;52.376;9.694;2024-03-08T14:14:11;21.23;;;15.53;;
6483;SDS011;3275;52.376;9.694;2024-03-08T14:16:38;23.93;;;15.50;;
6483;SDS011;3275;52.376;9.694;2024-03-08T14:19:05;24.03;;;16.23;;
6483;SDS011;3275;52.376;9.694;2024-03-08T14:21:32;26.33;;;16.27;;
6483;SDS011;3275;52.376;9.694;2024-03-08T14:23:59;21.20;;;15.13;;
6483;SDS011;3275;52.376;9.694;2024-03-08T14:26:27;24.00;;;15.03;;
6483;SDS011;3275;52.376;9.694;2024-03-08T14:28:54;25.33;;;15.90;;
6483;SDS011;3275;52.376;9.694;2024-03-08T14:31:20;26.93;;;15.57;;
6483;SDS011;3275;52.376;9.694;2024-03-08T14:33:50;25.93;;;16.47;;
6483;SDS011;3275;52.376;9.694;2024-03-08T14:36:17;21.07;;;14.30;;
6483;SDS011;3275;52.376;9.694;2024-03-08T14:38:44;23.03;;;12.53;;
6483;SDS011;3275;52.376;9.694;2024-03-08T14:41:12;26.50;;;14.57;;
6483;SDS011;3275;52.376;9.694;2024-03-08T14:43:41;17.27;;;11.60;;
6483;SDS011;3275;52.376;9.694;2024-03-08T14:46:09;21.00;;;13.53;;
6483;SDS011;3275;52.376;9.694;2024-03-08T14:48:39;24.40;;;13.63;;
6483;SDS011;3275;52.376;9.694;2024-03-08T14:51:06;19.03;;;12.07;;
6483;SDS011;3275;52.376;9.694;2024-03-08T14:53:35;18.67;;;12.73;;
6483;SDS011;3275;52.376;9.694;2024-03-08T14:56:05;19.73;;;13.00;;
6483;SDS011;3275;52.376;9.694;2024-03-08T14:58:33;18.57;;;13.03;;